Time;durP1;ratioP1;P1;durP2;ratioP2;P2;SDS_P1;SDS_P2;PMS_P1;PMS_P2;Temp;Humidity;BMP_temperature;BMP_pressure;BME280_temperature;BME280_humidity;BME280_pressure;Samples;Min_cycle;Max_cycle;Signal;HPM_P1;HPM_P2
2023/01/23 00:01:16;;;;;;;12.35;6.78;;;3.20;87.60;;;;;;5050574;28;20403;-61
2023/01/23 00:03:41;;;;;;;9.55;6.75;;;3.20;86.90;;;;;;5050793;28;20387;-61
2023/01/23 00:06:11;;;;;;;10.15;6.65;;;3.20;86.80;;;;;;5049204;28;20035;-61
2023/01/23 00:08:37;;;;;;;13.77;7.50;;;3.20;86.60;;;;;;5057783;28;20028;-60
2023/01/23 00:11:05;;;;;;;12.65;6.93;;;3.30;86.60;;;;;;5048907;28;20078;-60
2023/01/23 00:13:31;;;;;;;11.23;6.63;;;3.30;86.30;;;;;;5048212;28;20047;-61
2023/01/23 00:15:57;;;;;;;8.68;6.10;;;3.30;86.10;;;;;;5053347;28;20028;-61
2023/01/23 00:18:23;;;;;;;10.63;6.68;;;3.30;86.00;;;;;;5061184;28;20459;-60
2023/01/23 00:20:48;;;;;;;8.75;6.30;;;3.30;85.90;;;;;;5056536;28;20467;-60
2023/01/23 00:23:14;;;;;;;9.68;6.28;;;3.30;86.10;;;;;;5057017;28;20112;-60
2023/01/23 00:25:39;;;;;;;12.57;6.38;;;3.30;86.10;;;;;;5055880;28;20031;-61
2023/01/23 00:28:05;;;;;;;9.07;5.88;;;3.40;86.10;;;;;;5055912;28;20028;-61
2023/01/23 00:30:31;;;;;;;9.23;6.80;;;3.40;85.90;;;;;;5056769;28;20083;-61
2023/01/23 00:32:57;;;;;;;8.93;6.03;;;3.40;85.80;;;;;;5054449;28;20041;-61
2023/01/23 00:35:23;;;;;;;10.90;6.65;;;3.30;85.80;;;;;;5054190;28;20538;-60
2023/01/23 00:37:48;;;;;;;8.88;6.93;;;3.40;85.90;;;;;;5054316;28;20037;-61
2023/01/23 00:40:14;;;;;;;12.05;7.32;;;3.40;85.70;;;;;;5052480;28;20067;-61
2023/01/23 00:42:40;;;;;;;14.18;7.43;;;3.40;85.50;;;;;;5054200;28;20484;-61
2023/01/23 00:45:06;;;;;;;10.82;6.90;;;3.40;85.40;;;;;;5053926;28;20132;-61
2023/01/23 00:47:32;;;;;;;10.10;6.57;;;3.40;85.40;;;;;;5054093;28;20108;-61
2023/01/23 00:49:58;;;;;;;10.90;6.50;;;3.40;85.30;;;;;;5053880;28;20415;-61
2023/01/23 00:52:25;;;;;;;10.73;6.57;;;3.40;85.20;;;;;;5062358;28;20028;-60
2023/01/23 00:54:50;;;;;;;7.80;6.20;;;3.40;85.20;;;;;;5055896;28;20090;-61
2023/01/23 00:57:16;;;;;;;11.95;7.38;;;3.40;85.20;;;;;;5043657;28;20037;-62
2023/01/23 00:59:42;;;;;;;10.35;6.22;;;3.30;85.40;;;;;;5053754;28;20419;-62
2023/01/23 01:02:07;;;;;;;11.50;7.57;;;3.40;85.40;;;;;;5060445;28;20025;-51
2023/01/23 01:04:33;;;;;;;9.73;6.20;;;3.40;85.40;;;;;;5054217;28;20040;-48
2023/01/23 01:06:59;;;;;;;8.43;6.30;;;3.40;84.80;;;;;;5063319;28;20086;-59
2023/01/23 01:09:24;;;;;;;8.75;6.03;;;3.40;84.80;;;;;;5053647;28;20032;-59
2023/01/23 01:11:50;;;;;;;9.45;6.65;;;3.30;84.60;;;;;;5039411;28;20047;-50
2023/01/23 01:14:17;;;;;;;10.35;6.50;;;3.30;84.50;;;;;;5052976;28;20052;-56
2023/01/23 01:16:45;;;;;;;11.60;7.50;;;3.30;84.50;;;;;;5043442;28;20044;-48
2023/01/23 01:19:12;;;;;;;9.70;6.93;;;3.20;84.50;;;;;;5053453;28;20436;-49
2023/01/23 01:21:39;;;;;;;11.40;7.35;;;3.20;84.60;;;;;;5053360;28;20025;-59
2023/01/23 01:24:05;;;;;;;9.27;6.93;;;3.20;84.50;;;;;;5059353;28;20032;-59
2023/01/23 01:26:31;;;;;;;9.07;6.68;;;3.20;84.60;;;;;;5051680;28;20368;-60
2023/01/23 01:28:56;;;;;;;12.35;7.43;;;3.20;84.60;;;;;;5057158;28;20036;-60
2023/01/23 01:31:22;;;;;;;10.20;6.95;;;3.20;84.60;;;;;;5053169;28;20594;-59
2023/01/23 01:33:49;;;;;;;10.90;6.90;;;3.20;84.60;;;;;;5052195;28;20029;-59
2023/01/23 01:36:18;;;;;;;9.10;6.95;;;3.20;84.60;;;;;;5061646;28;20029;-61
2023/01/23 01:38:44;;;;;;;11.80;7.63;;;3.20;84.70;;;;;;5053325;28;20036;-60
2023/01/23 01:41:11;;;;;;;9.85;6.93;;;3.20;84.60;;;;;;5047556;28;20033;-59
2023/01/23 01:43:37;;;;;;;12.48;7.72;;;3.20;84.70;;;;;;5048456;28;20021;-59
2023/01/23 01:46:11;;;;;;;8.10;5.95;;;3.20;84.80;;;;;;5052200;28;20036;-59
2023/01/23 01:48:46;;;;;;;10.63;7.70;;;3.30;84.80;;;;;;5051652;28;20029;-60
2023/01/23 01:51:32;;;;;;;12.18;8.30;;;3.30;84.70;;;;;;5052201;28;20033;-59
2023/01/23 01:54:16;;;;;;;9.90;7.40;;;3.30;84.50;;;;;;5056000;28;20139;-60
2023/01/23 01:57:20;;;;;;;10.60;7.05;;;3.30;84.60;;;;;;5051217;28;20407;-58
2023/01/23 01:59:58;;;;;;;10.13;6.43;;;3.30;84.60;;;;;;5050893;28;20033;-59
2023/01/23 02:02:33;;;;;;;11.65;7.43;;;3.30;84.70;;;;;;5062200;28;20040;-58
2023/01/23 02:05:20;;;;;;;9.25;6.63;;;3.40;84.70;;;;;;5058212;28;20055;-59
2023/01/23 02:07:57;;;;;;;8.90;6.32;;;3.30;84.30;;;;;;5052352;28;20049;-62
2023/01/23 02:10:23;;;;;;;9.52;6.70;;;3.30;84.30;;;;;;5046942;28;20033;-59
2023/01/23 02:12:50;;;;;;;8.57;6.70;;;3.30;84.10;;;;;;5047783;28;20094;-59
2023/01/23 02:15:20;;;;;;;9.98;6.80;;;3.30;84.00;;;;;;5052528;28;20108;-59
2023/01/23 02:17:49;;;;;;;9.48;6.47;;;3.30;84.10;;;;;;5051218;28;20033;-59
2023/01/23 02:20:22;;;;;;;9.38;6.35;;;3.30;84.10;;;;;;5052382;28;20028;-59
2023/01/23 02:23:05;;;;;;;8.77;6.10;;;3.20;84.80;;;;;;5052326;28;20509;-59
2023/01/23 02:26:02;;;;;;;10.38;6.20;;;3.20;84.00;;;;;;5064072;28;20071;-54
2023/01/23 02:28:44;;;;;;;11.10;6.65;;;3.20;84.10;;;;;;5051841;28;20036;-51
2023/01/23 02:31:11;;;;;;;10.38;6.10;;;3.20;84.10;;;;;;5048718;28;20061;-58
2023/01/23 02:33:36;;;;;;;8.77;5.85;;;3.20;84.10;;;;;;5050614;28;20045;-49
2023/01/23 02:36:07;;;;;;;8.50;5.85;;;3.20;84.10;;;;;;5062563;28;20035;-60
2023/01/23 02:38:43;;;;;;;8.50;5.85;;;3.20;84.00;;;;;;5049638;28;20020;-61
2023/01/23 02:41:11;;;;;;;10.45;6.07;;;3.20;84.00;;;;;;5051329;28;20497;-62
2023/01/23 02:43:37;;;;;;;8.88;6.20;;;3.20;84.70;;;;;;5051497;28;20043;-62
2023/01/23 02:46:10;;;;;;;10.75;6.22;;;3.20;84.10;;;;;;5051896;28;20028;-59
2023/01/23 02:48:38;;;;;;;11.57;5.97;;;3.20;84.00;;;;;;5051450;28;20032;-59
2023/01/23 02:51:04;;;;;;;10.63;7.00;;;3.20;84.10;;;;;;5049588;28;20025;-59
2023/01/23 02:53:30;;;;;;;12.70;6.63;;;3.20;84.20;;;;;;5067126;28;20021;-60
2023/01/23 02:55:57;;;;;;;12.02;6.85;;;3.20;84.10;;;;;;5051820;28;20035;-58
2023/01/23 03:01:08;;;;;;;10.80;7.70;;;3.20;84.20;;;;;;5056033;28;20028;-59
2023/01/23 03:03:33;;;;;;;10.30;6.75;;;3.20;84.10;;;;;;5050857;28;20028;-58
2023/01/23 03:06:02;;;;;;;10.60;7.85;;;3.20;84.20;;;;;;5034810;28;20037;-61
2023/01/23 03:08:32;;;;;;;12.63;7.55;;;3.20;84.30;;;;;;5039819;28;20036;-62
2023/01/23 03:10:59;;;;;;;11.52;7.63;;;3.20;84.20;;;;;;5056699;28;20021;-59
2023/01/23 03:13:24;;;;;;;11.05;7.50;;;3.20;84.10;;;;;;5051195;28;20036;-57
2023/01/23 03:15:55;;;;;;;12.00;7.32;;;3.20;84.00;;;;;;5038364;28;20418;-60
2023/01/23 03:18:20;;;;;;;11.27;6.65;;;3.20;83.80;;;;;;5051129;28;20517;-60
2023/01/23 03:20:46;;;;;;;11.80;8.00;;;3.20;83.60;;;;;;5051638;28;20067;-60
2023/01/23 03:23:13;;;;;;;10.30;7.63;;;3.10;84.10;;;;;;5058490;28;20032;-60
2023/01/23 03:25:42;;;;;;;14.10;9.27;;;3.10;83.40;;;;;;5039570;28;20056;-59
2023/01/23 03:30:11;;;;;;;15.55;9.38;;;3.10;83.40;;;;;;5051050;28;20103;-58
2023/01/23 03:30:54;;;;;;;14.60;9.20;;;3.10;83.50;;;;;;5051000;28;20045;-59
2023/01/23 03:33:19;;;;;;;12.38;8.20;;;3.00;83.50;;;;;;5050969;28;20029;-59
2023/01/23 03:35:45;;;;;;;15.57;9.07;;;3.00;83.50;;;;;;5040589;28;20061;-59
2023/01/23 03:38:11;;;;;;;12.02;7.75;;;3.00;83.40;;;;;;5049578;28;20025;-60
2023/01/23 03:43:21;;;;;;;11.63;7.13;;;2.90;83.40;;;;;;5043163;28;20391;-59
2023/01/23 03:45:46;;;;;;;11.80;7.78;;;2.90;83.40;;;;;;5050732;28;20025;-59
2023/01/23 03:48:12;;;;;;;11.32;7.13;;;2.90;83.10;;;;;;5061206;28;20082;-59
2023/01/23 03:50:37;;;;;;;10.50;7.20;;;2.90;83.00;;;;;;5052928;28;20511;-59
2023/01/23 03:53:03;;;;;;;9.07;6.35;;;2.90;82.90;;;;;;5067769;28;20029;-59
2023/01/23 03:55:29;;;;;;;8.77;6.45;;;2.80;83.00;;;;;;5064461;28;20025;-59
2023/01/23 03:57:54;;;;;;;9.82;6.82;;;2.80;83.00;;;;;;5054706;28;20037;-59
2023/01/23 04:00:20;;;;;;;7.75;5.90;;;2.80;82.80;;;;;;5056984;28;20173;-59
2023/01/23 04:02:45;;;;;;;8.38;6.03;;;2.80;82.60;;;;;;5042381;28;20041;-59
2023/01/23 04:05:11;;;;;;;8.63;5.78;;;2.80;82.30;;;;;;5059931;28;20024;-58
2023/01/23 04:07:37;;;;;;;7.38;5.80;;;2.80;82.20;;;;;;5055257;28;20025;-59
2023/01/23 04:10:02;;;;;;;8.00;5.88;;;2.80;82.20;;;;;;5055002;28;20776;-59
2023/01/23 04:12:28;;;;;;;7.95;6.00;;;2.80;82.20;;;;;;5054524;28;20031;-59
2023/01/23 04:14:54;;;;;;;6.80;5.57;;;2.80;82.00;;;;;;5054653;28;20111;-59
2023/01/23 04:17:19;;;;;;;7.45;5.63;;;2.80;81.80;;;;;;5056402;28;20031;-59
2023/01/23 04:19:45;;;;;;;7.55;5.57;;;2.80;81.70;;;;;;5062298;28;20410;-59
2023/01/23 04:22:10;;;;;;;7.60;6.00;;;2.80;81.60;;;;;;5054259;28;20025;-59
2023/01/23 04:24:36;;;;;;;8.18;5.88;;;2.70;81.30;;;;;;5056292;28;20075;-59
2023/01/23 04:27:02;;;;;;;6.65;5.50;;;2.70;81.60;;;;;;5054488;28;20036;-59
2023/01/23 04:29:27;;;;;;;7.50;5.97;;;2.70;81.80;;;;;;5056531;28;20040;-60
2023/01/23 04:31:53;;;;;;;11.18;6.82;;;2.70;81.70;;;;;;5054052;28;20040;-59
2023/01/23 04:34:19;;;;;;;7.78;5.90;;;2.60;81.60;;;;;;5047106;28;20083;-58
2023/01/23 04:36:44;;;;;;;9.38;6.25;;;2.60;81.90;;;;;;5052087;28;20029;-59
2023/01/23 04:39:10;;;;;;;9.65;6.47;;;2.60;82.10;;;;;;5059422;28;20047;-59
2023/01/23 04:41:35;;;;;;;10.35;7.20;;;2.60;82.10;;;;;;5053809;28;20021;-60
2023/01/23 04:44:19;;;;;;;8.75;6.40;;;2.60;82.20;;;;;;5053784;28;20060;-59
2023/01/23 04:46:51;;;;;;;9.93;7.32;;;2.60;82.40;;;;;;5052931;28;20043;-59
2023/01/23 04:49:18;;;;;;;9.40;7.00;;;2.60;82.50;;;;;;5054884;28;20107;-59
2023/01/23 04:51:47;;;;;;;8.27;6.22;;;2.60;82.60;;;;;;5055940;28;20020;-62
2023/01/23 04:54:13;;;;;;;9.65;6.45;;;2.60;82.50;;;;;;5058735;28;20036;-63
2023/01/23 04:56:39;;;;;;;7.47;6.18;;;2.60;82.30;;;;;;5054526;28;20095;-63
2023/01/23 04:59:04;;;;;;;9.88;6.70;;;2.60;82.30;;;;;;5052261;28;20445;-60
2023/01/23 05:01:30;;;;;;;9.45;6.20;;;2.60;82.20;;;;;;5052532;28;20075;-60
2023/01/23 05:03:56;;;;;;;10.13;6.85;;;2.60;82.10;;;;;;5034902;28;20079;-62
2023/01/23 05:06:22;;;;;;;10.98;6.57;;;2.60;82.20;;;;;;5050905;28;20078;-59
2023/01/23 05:08:47;;;;;;;8.13;5.88;;;2.60;82.10;;;;;;5051064;28;20071;-59
2023/01/23 05:11:13;;;;;;;8.75;6.10;;;2.50;81.90;;;;;;5041563;28;20041;-59
2023/01/23 05:13:39;;;;;;;8.48;6.53;;;2.50;82.00;;;;;;5052094;28;20407;-59
2023/01/23 05:16:05;;;;;;;8.00;5.68;;;2.40;82.20;;;;;;5052413;28;20032;-51
2023/01/23 05:18:30;;;;;;;9.13;6.57;;;2.40;82.50;;;;;;5060047;28;20036;-49
2023/01/23 05:20:56;;;;;;;10.55;7.07;;;2.50;82.80;;;;;;5050023;28;20024;-58
2023/01/23 05:23:21;;;;;;;8.10;6.43;;;2.50;82.80;;;;;;5046563;28;20032;-58
2023/01/23 05:25:47;;;;;;;11.57;7.10;;;2.60;82.50;;;;;;5051547;28;20112;-58
2023/01/23 05:28:13;;;;;;;10.05;6.95;;;2.60;82.80;;;;;;5051943;28;20175;-61
2023/01/23 05:30:38;;;;;;;8.68;6.38;;;2.60;82.30;;;;;;5052049;28;20033;-52
2023/01/23 05:33:04;;;;;;;8.27;6.60;;;2.70;82.10;;;;;;5051985;28;20043;-51
2023/01/23 05:35:30;;;;;;;9.65;7.38;;;2.70;81.90;;;;;;5051988;28;20112;-61
2023/01/23 05:37:56;;;;;;;7.32;6.07;;;2.70;81.80;;;;;;5050155;28;20036;-60
2023/01/23 05:40:22;;;;;;;9.80;6.88;;;2.70;81.70;;;;;;5051157;28;20032;-60
2023/01/23 05:42:48;;;;;;;7.95;6.53;;;2.70;81.60;;;;;;5050548;28;20029;-60
2023/01/23 05:45:15;;;;;;;10.40;7.45;;;2.70;81.90;;;;;;5011868;28;1155591;-60
2023/01/23 05:47:42;;;;;;;9.48;7.15;;;2.70;82.20;;;;;;5051381;28;20033;-59
2023/01/23 05:50:10;;;;;;;8.88;7.00;;;2.70;82.40;;;;;;5051119;28;20589;-59
2023/01/23 05:52:35;;;;;;;8.73;6.63;;;2.70;82.00;;;;;;5053167;28;20060;-59
2023/01/23 05:55:01;;;;;;;11.43;7.60;;;2.70;81.90;;;;;;5055744;28;20056;-59
2023/01/23 05:57:27;;;;;;;10.68;7.25;;;2.80;81.90;;;;;;5052834;28;20039;-58
2023/01/23 05:59:52;;;;;;;9.30;6.85;;;2.70;81.80;;;;;;5051408;28;20355;-60
2023/01/23 06:02:18;;;;;;;8.63;6.97;;;2.80;81.80;;;;;;5053481;28;20023;-59
2023/01/23 06:04:47;;;;;;;11.63;7.95;;;2.80;81.40;;;;;;5051309;28;20043;-59
2023/01/23 06:07:14;;;;;;;9.88;7.20;;;2.80;81.70;;;;;;5051757;28;20021;-51
2023/01/23 06:09:40;;;;;;;12.57;8.18;;;2.70;81.60;;;;;;5052638;28;20571;-49
2023/01/23 06:12:06;;;;;;;11.32;7.80;;;2.70;81.80;;;;;;5051827;28;20104;-54
2023/01/23 06:14:31;;;;;;;10.90;7.55;;;2.70;81.80;;;;;;5052012;28;20119;-53
2023/01/23 06:16:57;;;;;;;9.63;7.28;;;2.70;81.80;;;;;;5063201;28;20124;-61
2023/01/23 06:19:22;;;;;;;10.85;7.47;;;2.70;81.70;;;;;;5049797;28;20416;-61
2023/01/23 06:21:48;;;;;;;12.35;7.50;;;2.80;81.70;;;;;;5051374;28;20028;-62
2023/01/23 06:24:14;;;;;;;10.80;7.68;;;2.80;81.60;;;;;;5050408;28;20355;-62
2023/01/23 06:26:39;;;;;;;9.75;6.75;;;2.80;81.70;;;;;;5057899;28;20128;-62
2023/01/23 06:29:05;;;;;;;11.18;7.32;;;2.80;81.80;;;;;;5051167;28;20037;-63
2023/01/23 06:31:31;;;;;;;11.45;8.20;;;2.80;81.50;;;;;;5042054;28;20028;-62
2023/01/23 06:33:57;;;;;;;9.38;6.50;;;2.80;81.50;;;;;;5041960;28;20045;-62
2023/01/23 06:36:23;;;;;;;12.75;8.18;;;2.80;81.60;;;;;;5043680;28;20100;-55
2023/01/23 06:38:49;;;;;;;10.13;7.20;;;2.80;81.50;;;;;;5047559;28;20639;-51
2023/01/23 06:41:15;;;;;;;11.75;7.57;;;2.80;81.60;;;;;;5055766;28;20028;-62
2023/01/23 06:43:41;;;;;;;10.75;7.72;;;2.80;81.20;;;;;;5033283;28;20123;-62
2023/01/23 06:46:08;;;;;;;10.90;7.18;;;2.80;81.40;;;;;;5043990;28;20498;-60
2023/01/23 06:48:34;;;;;;;10.88;7.20;;;2.80;81.40;;;;;;5045984;28;20048;-58
2023/01/23 06:51:00;;;;;;;11.40;7.68;;;2.80;81.50;;;;;;5047676;28;20143;-59
2023/01/23 06:53:26;;;;;;;10.82;7.00;;;2.80;81.60;;;;;;5050627;28;20049;-60
2023/01/23 06:55:52;;;;;;;10.75;6.85;;;2.80;81.40;;;;;;5043469;28;20455;-53
2023/01/23 06:58:18;;;;;;;11.27;7.13;;;2.80;81.40;;;;;;5048347;28;20060;-54
2023/01/23 07:00:44;;;;;;;10.35;6.78;;;2.70;81.60;;;;;;5034168;28;20118;-56
2023/01/23 07:03:14;;;;;;;14.20;7.80;;;2.70;81.60;;;;;;5042081;28;20071;-50
2023/01/23 07:05:42;;;;;;;10.93;7.68;;;2.70;81.70;;;;;;5044179;28;20036;-57
2023/01/23 07:08:08;;;;;;;10.80;7.05;;;2.70;81.50;;;;;;5037971;28;20465;-56
2023/01/23 07:10:36;;;;;;;8.20;6.25;;;2.70;81.50;;;;;;5042100;28;20503;-51
2023/01/23 07:13:06;;;;;;;11.80;7.57;;;2.70;81.70;;;;;;5046054;28;20040;-54
2023/01/23 07:15:33;;;;;;;10.43;7.05;;;2.70;81.70;;;;;;5039868;28;20037;-54
2023/01/23 07:17:59;;;;;;;9.75;6.53;;;2.70;81.80;;;;;;5048734;28;20032;-51
2023/01/23 07:20:26;;;;;;;11.07;6.93;;;2.70;81.90;;;;;;5046755;28;20047;-55
2023/01/23 07:22:55;;;;;;;11.13;6.85;;;2.70;81.80;;;;;;5022657;28;20033;-58
2023/01/23 07:25:22;;;;;;;12.60;7.60;;;2.70;82.00;;;;;;5027321;28;20029;-58
2023/01/23 07:27:48;;;;;;;12.18;7.10;;;2.70;81.90;;;;;;5031368;28;20029;-57
2023/01/23 07:30:14;;;;;;;10.57;7.30;;;2.70;82.00;;;;;;5025016;28;20108;-57
2023/01/23 07:32:40;;;;;;;10.05;6.70;;;2.70;82.20;;;;;;5023990;28;20037;-53
2023/01/23 07:35:07;;;;;;;10.77;7.18;;;2.80;82.30;;;;;;5028895;28;20057;-58
2023/01/23 07:37:32;;;;;;;11.32;6.82;;;2.80;82.20;;;;;;5035628;28;20040;-57
2023/01/23 07:39:58;;;;;;;10.75;6.43;;;2.80;82.20;;;;;;5030443;28;21468;-52
2023/01/23 07:42:24;;;;;;;12.40;7.45;;;2.80;82.10;;;;;;5026317;28;20036;-54
2023/01/23 07:44:49;;;;;;;10.35;7.25;;;2.80;82.10;;;;;;5029002;28;20255;-55
2023/01/23 07:47:15;;;;;;;8.65;6.60;;;2.80;82.20;;;;;;5033888;28;20060;-61
2023/01/23 07:49:40;;;;;;;10.20;6.60;;;2.80;82.30;;;;;;5035364;28;20084;-65
2023/01/23 07:52:06;;;;;;;11.13;7.22;;;2.90;82.40;;;;;;5029465;28;20060;-62
2023/01/23 07:54:32;;;;;;;10.80;7.38;;;2.90;82.40;;;;;;5028716;28;20055;-61
2023/01/23 07:56:57;;;;;;;9.57;7.00;;;2.90;82.30;;;;;;5031592;28;20047;-54
2023/01/23 07:59:23;;;;;;;12.38;7.78;;;2.90;82.30;;;;;;5025175;28;20036;-60
2023/01/23 08:01:51;;;;;;;10.15;6.80;;;3.00;82.10;;;;;;5021129;28;20029;-59
2023/01/23 08:04:17;;;;;;;10.57;6.80;;;3.00;81.80;;;;;;5021133;28;20040;-56
2023/01/23 08:06:43;;;;;;;9.90;6.80;;;3.00;81.80;;;;;;5024010;28;20032;-61
2023/01/23 08:09:09;;;;;;;9.88;6.45;;;3.00;81.90;;;;;;5019837;28;20092;-59
2023/01/23 08:11:34;;;;;;;8.80;6.55;;;3.00;81.90;;;;;;5014639;28;20044;-61
2023/01/23 08:14:00;;;;;;;7.20;5.88;;;2.90;81.80;;;;;;5012366;28;20033;-64
2023/01/23 08:16:26;;;;;;;8.13;6.13;;;2.90;81.90;;;;;;5015427;28;20033;-62
2023/01/23 08:18:52;;;;;;;10.90;6.68;;;3.00;82.00;;;;;;5029133;28;20033;-61
2023/01/23 08:21:19;;;;;;;8.63;6.30;;;3.00;81.90;;;;;;5023038;28;20033;-59
2023/01/23 08:23:45;;;;;;;9.40;7.00;;;3.00;81.90;;;;;;5026553;28;20085;-60
2023/01/23 08:26:13;;;;;;;10.13;6.95;;;3.00;82.00;;;;;;5019366;28;20033;-61
2023/01/23 08:28:40;;;;;;;9.30;6.82;;;3.00;81.70;;;;;;5027353;28;20040;-60
2023/01/23 08:31:08;;;;;;;9.65;7.00;;;3.00;81.70;;;;;;5020205;28;20573;-60
2023/01/23 08:33:36;;;;;;;9.45;6.45;;;3.00;81.70;;;;;;5013349;28;20083;-59
2023/01/23 08:36:02;;;;;;;8.98;6.55;;;3.00;81.70;;;;;;5015550;28;20052;-58
2023/01/23 08:38:30;;;;;;;8.50;6.38;;;3.10;81.90;;;;;;5019223;28;20021;-61
2023/01/23 08:40:58;;;;;;;8.05;6.40;;;3.10;81.50;;;;;;5026234;28;20605;-60
2023/01/23 08:43:24;;;;;;;8.20;6.60;;;3.10;81.50;;;;;;5019289;28;20067;-64
2023/01/23 08:45:52;;;;;;;9.05;6.68;;;3.10;81.40;;;;;;5014798;28;20390;-59
2023/01/23 08:48:19;;;;;;;9.48;6.18;;;3.10;82.10;;;;;;5023423;28;20033;-63
2023/01/23 08:50:45;;;;;;;9.55;6.65;;;3.20;81.40;;;;;;5026423;28;20037;-62
2023/01/23 08:53:11;;;;;;;8.88;6.50;;;3.20;81.30;;;;;;5020469;28;20041;-62
2023/01/23 08:55:37;;;;;;;8.65;6.43;;;3.20;81.10;;;;;;5015377;28;20040;-61
2023/01/23 08:58:04;;;;;;;9.15;6.57;;;3.30;80.90;;;;;;5023501;28;20051;-62
2023/01/23 09:00:30;;;;;;;9.68;6.85;;;3.30;80.80;;;;;;5023219;28;20059;-61
2023/01/23 09:02:59;;;;;;;7.60;6.13;;;3.30;80.60;;;;;;5016225;28;20041;-60
2023/01/23 09:05:25;;;;;;;7.20;5.97;;;3.30;80.60;;;;;;5018548;28;20163;-60
2023/01/23 09:07:51;;;;;;;9.35;6.55;;;3.30;80.30;;;;;;5008321;28;20036;-62
2023/01/23 09:10:17;;;;;;;11.50;7.15;;;3.30;80.40;;;;;;5019264;28;20068;-63
2023/01/23 09:12:42;;;;;;;8.95;6.95;;;3.30;80.50;;;;;;5019612;28;20023;-62
2023/01/23 09:15:09;;;;;;;8.30;5.72;;;3.30;80.40;;;;;;5021474;28;20112;-60
2023/01/23 09:17:35;;;;;;;8.70;6.57;;;3.30;80.50;;;;;;5019980;28;20111;-60
2023/01/23 09:20:04;;;;;;;7.97;5.97;;;3.40;79.90;;;;;;5017662;28;21082;-60
2023/01/23 09:22:30;;;;;;;7.78;6.13;;;3.40;79.90;;;;;;5012787;28;20029;-60
2023/01/23 09:24:56;;;;;;;9.20;6.32;;;3.40;79.90;;;;;;5016085;28;21082;-62
2023/01/23 09:27:22;;;;;;;7.97;6.03;;;3.40;80.00;;;;;;5022473;28;20054;-62
2023/01/23 09:29:48;;;;;;;8.88;5.80;;;3.40;80.20;;;;;;5001420;28;20040;-61
2023/01/23 09:32:14;;;;;;;8.52;5.85;;;3.40;80.30;;;;;;5017945;28;20021;-56
2023/01/23 09:34:40;;;;;;;7.57;5.32;;;3.40;80.30;;;;;;5008668;28;20182;-60
2023/01/23 09:37:06;;;;;;;7.80;6.22;;;3.40;80.40;;;;;;5018999;28;20869;-62
2023/01/23 09:39:31;;;;;;;8.27;6.10;;;3.50;80.20;;;;;;5009113;28;20123;-58
2023/01/23 09:41:58;;;;;;;8.38;5.88;;;3.50;80.10;;;;;;5027085;28;20128;-56
2023/01/23 09:44:27;;;;;;;8.57;6.05;;;3.50;80.00;;;;;;5014453;28;20052;-51
2023/01/23 09:47:01;;;;;;;10.07;6.38;;;3.50;80.00;;;;;;5010852;28;20028;-57
2023/01/23 09:49:35;;;;;;;8.18;5.95;;;3.50;79.70;;;;;;5011825;28;20728;-58
2023/01/23 09:52:05;;;;;;;9.55;6.20;;;3.50;80.00;;;;;;5004250;28;20143;-55
2023/01/23 09:54:43;;;;;;;7.57;5.65;;;3.50;80.00;;;;;;5011118;28;20049;-53
2023/01/23 09:57:34;;;;;;;8.68;6.25;;;3.50;80.00;;;;;;5006493;28;20055;-53
2023/01/23 10:00:14;;;;;;;7.75;6.10;;;3.50;80.00;;;;;;4995777;28;20789;-57
2023/01/23 10:02:43;;;;;;;8.02;5.80;;;3.50;79.80;;;;;;5010879;28;20045;-54
2023/01/23 10:05:14;;;;;;;9.00;6.47;;;3.50;79.90;;;;;;5019151;28;20044;-57
2023/01/23 10:08:09;;;;;;;8.80;5.80;;;3.50;79.60;;;;;;5026791;28;20115;-61
2023/01/23 10:11:19;;;;;;;8.95;6.40;;;3.60;79.70;;;;;;5017422;28;20120;-61
2023/01/23 10:13:44;;;;;;;11.02;7.00;;;3.60;79.50;;;;;;5017567;28;20041;-61
2023/01/23 10:16:39;;;;;;;9.52;6.60;;;3.50;79.40;;;;;;5025440;28;20032;-61
2023/01/23 10:19:23;;;;;;;9.02;6.15;;;3.50;79.60;;;;;;5024099;28;20036;-61
2023/01/23 10:22:00;;;;;;;10.18;6.85;;;3.50;79.70;;;;;;5010921;28;20033;-60
2023/01/23 10:24:52;;;;;;;9.00;6.50;;;3.50;79.70;;;;;;5018423;28;20048;-60
2023/01/23 10:27:21;;;;;;;;;;;3.60;79.70;;;;;;5021535;28;20041;-58
2023/01/23 10:30:01;;;;;;;8.18;5.85;;;3.50;79.20;;;;;;5021899;28;20048;-61
2023/01/23 10:32:29;;;;;;;9.63;6.13;;;3.50;79.90;;;;;;5009779;28;20717;-61
2023/01/23 10:35:06;;;;;;;8.43;6.68;;;3.60;79.80;;;;;;5018491;28;20167;-61
2023/01/23 10:38:00;;;;;;;8.45;6.07;;;3.60;79.90;;;;;;5020918;28;20171;-62
2023/01/23 10:43:16;;;;;;;11.40;6.45;;;3.60;80.00;;;;;;5014577;28;20044;-61
2023/01/23 10:45:43;;;;;;;10.00;6.57;;;3.60;79.90;;;;;;5025230;28;20115;-60
2023/01/23 10:48:31;;;;;;;8.23;5.95;;;3.60;80.00;;;;;;5015699;28;20095;-61
2023/01/23 10:50:57;;;;;;;8.95;6.88;;;3.60;79.40;;;;;;5024967;28;20071;-61
2023/01/23 10:53:24;;;;;;;10.38;6.93;;;3.60;79.50;;;;;;5020689;28;20106;-62
2023/01/23 10:55:52;;;;;;;10.77;7.30;;;3.60;79.50;;;;;;5017811;28;20458;-61
2023/01/23 10:58:37;;;;;;;11.38;7.25;;;3.70;79.60;;;;;;5015535;28;20484;-61
2023/01/23 11:01:03;;;;;;;9.52;6.40;;;3.70;79.40;;;;;;5015072;28;20048;-63
2023/01/23 11:03:34;;;;;;;9.55;7.05;;;3.70;79.00;;;;;;5036173;28;20039;-62
2023/01/23 11:06:17;;;;;;;11.10;7.50;;;3.70;79.00;;;;;;5022459;28;20037;-63
2023/01/23 11:08:59;;;;;;;13.70;8.05;;;3.70;79.10;;;;;;5007897;28;20532;-62
2023/01/23 11:11:29;;;;;;;13.15;7.53;;;3.80;78.90;;;;;;5005934;28;20120;-62
2023/01/23 11:14:15;;;;;;;10.68;7.38;;;3.80;78.50;;;;;;5003995;28;20235;-62
2023/01/23 11:16:42;;;;;;;11.73;7.15;;;3.80;78.10;;;;;;5014848;28;20026;-60
2023/01/23 11:19:08;;;;;;;10.02;6.90;;;3.80;78.20;;;;;;5019175;28;20690;-62
2023/01/23 11:21:35;;;;;;;9.50;6.22;;;3.80;78.10;;;;;;5016502;28;20030;-62
2023/01/23 11:24:37;;;;;;;9.73;6.85;;;3.80;78.10;;;;;;5011422;28;20045;-62
2023/01/23 11:27:04;;;;;;;;;;;3.90;78.00;;;;;;5017547;28;20067;-61
2023/01/23 11:29:46;;;;;;;9.07;6.40;;;3.80;77.90;;;;;;5026627;28;19955;-62
2023/01/23 11:32:12;;;;;;;;;;;3.80;78.20;;;;;;5025334;28;20025;-62
2023/01/23 11:34:44;;;;;;;8.73;6.05;;;3.80;78.10;;;;;;5021710;28;19931;-63
2023/01/23 11:37:24;;;;;;;9.52;6.45;;;3.90;78.20;;;;;;5026956;28;20083;-62
2023/01/23 11:39:52;;;;;;;11.57;6.32;;;3.90;78.20;;;;;;5011338;28;20056;-60
2023/01/23 11:42:19;;;;;;;10.18;6.45;;;4.00;78.00;;;;;;5023901;28;20506;-62
2023/01/23 11:44:45;;;;;;;9.48;6.30;;;4.10;77.80;;;;;;5015581;28;21165;-60
2023/01/23 11:47:33;;;;;;;11.57;7.28;;;4.10;77.50;;;;;;5020699;28;20045;-61
2023/01/23 11:50:29;;;;;;;10.77;6.40;;;4.10;77.20;;;;;;5021064;28;20034;-62
2023/01/23 11:53:30;;;;;;;12.40;8.05;;;4.10;77.10;;;;;;5027293;28;21031;-61
2023/01/23 11:56:05;;;;;;;9.57;6.88;;;4.20;77.00;;;;;;5015475;28;20057;-60
2023/01/23 11:58:53;;;;;;;10.23;6.75;;;4.20;77.00;;;;;;5023754;28;20033;-62
2023/01/23 12:01:24;;;;;;;9.02;6.05;;;4.20;77.00;;;;;;5012985;28;20029;-61
2023/01/23 12:04:25;;;;;;;10.82;6.88;;;4.20;77.00;;;;;;5006836;28;20043;-58
2023/01/23 12:07:06;;;;;;;10.88;6.43;;;4.20;76.80;;;;;;5016229;28;20112;-60
2023/01/23 12:09:50;;;;;;;10.80;6.68;;;4.30;76.90;;;;;;5006367;28;20038;-61
2023/01/23 12:12:33;;;;;;;8.90;6.20;;;4.30;76.50;;;;;;5018923;28;20705;-62
2023/01/23 12:15:29;;;;;;;11.73;7.80;;;4.30;76.50;;;;;;5016691;28;20150;-61
2023/01/23 12:18:06;;;;;;;9.55;6.38;;;4.20;76.30;;;;;;5012253;28;20114;-61
2023/01/23 12:21:04;;;;;;;11.02;6.65;;;4.20;76.50;;;;;;5020060;28;20152;-61
2023/01/23 12:24:07;;;;;;;11.00;7.15;;;4.20;76.50;;;;;;5015829;28;20037;-61
2023/01/23 12:26:37;;;;;;;11.00;7.07;;;4.20;76.50;;;;;;5021627;28;20419;-62
2023/01/23 12:29:17;;;;;;;12.02;6.97;;;4.20;76.40;;;;;;5033913;28;20033;-60
2023/01/23 12:32:03;;;;;;;11.13;6.93;;;4.20;76.30;;;;;;5024165;28;20059;-60
2023/01/23 12:34:48;;;;;;;10.32;6.75;;;4.20;77.00;;;;;;5019304;28;20554;-61
2023/01/23 12:37:39;;;;;;;13.50;7.13;;;4.30;76.50;;;;;;5023163;28;20119;-63
2023/01/23 12:40:10;;;;;;;9.63;7.10;;;4.30;76.50;;;;;;5024163;28;20843;-60
2023/01/23 12:42:46;;;;;;;10.98;6.63;;;4.30;76.30;;;;;;5016629;28;20136;-61
2023/01/23 12:45:14;;;;;;;13.32;7.43;;;4.40;76.30;;;;;;5025461;28;21074;-63
2023/01/23 12:48:05;;;;;;;9.07;6.60;;;4.40;76.20;;;;;;5018078;28;20033;-62
2023/01/23 12:50:37;;;;;;;10.13;6.43;;;4.40;76.00;;;;;;5015210;28;20038;-61
2023/01/23 12:53:05;;;;;;;;;;;4.40;75.90;;;;;;5021607;28;20032;-61
2023/01/23 12:55:56;;;;;;;8.98;6.05;;;4.40;75.90;;;;;;5023994;28;19919;-61
2023/01/23 12:58:25;;;;;;;9.73;6.80;;;4.40;76.20;;;;;;5029439;28;20033;-61
2023/01/23 13:01:19;;;;;;;11.10;6.55;;;4.40;76.10;;;;;;5023646;28;20403;-62
2023/01/23 13:04:28;;;;;;;10.52;6.85;;;4.40;75.90;;;;;;5010543;28;20425;-63
2023/01/23 13:07:19;;;;;;;11.18;6.97;;;4.50;75.80;;;;;;5008982;28;20519;-61
2023/01/23 13:09:47;;;;;;;9.40;6.47;;;4.50;75.70;;;;;;5013564;28;20600;-62
2023/01/23 13:12:20;;;;;;;11.55;7.40;;;4.50;75.60;;;;;;5026637;28;20033;-61
2023/01/23 13:14:47;;;;;;;11.50;7.05;;;4.50;75.60;;;;;;5025409;28;20049;-62
2023/01/23 13:17:29;;;;;;;9.95;6.93;;;4.50;75.60;;;;;;5027996;28;20041;-62